createdAt,value
2018-07-14T04:10:40.189Z,1014.53
2018-07-14T04:11:05.613Z,1014.48
2018-07-14T04:11:31.187Z,1014.52
2018-07-14T04:11:56.709Z,1014.49
2018-07-14T04:12:22.124Z,1014.49
2018-07-14T04:12:47.602Z,1014.47
2018-07-14T04:13:13.083Z,1014.45
2018-07-14T04:13:38.566Z,1014.53
2018-07-14T04:14:04.013Z,1014.47
2018-07-14T04:14:29.503Z,1014.51
2018-07-14T04:14:55.032Z,1014.51
2018-07-14T04:15:20.528Z,1014.55
2018-07-14T04:15:45.953Z,1014.51
2018-07-14T04:16:11.471Z,1014.51
2018-07-14T04:16:36.931Z,1014.52
2018-07-14T04:17:02.414Z,1014.51
2018-07-14T04:17:27.892Z,1014.55
2018-07-14T04:17:53.454Z,1014.58
2018-07-14T04:18:18.878Z,1014.56
2018-07-14T04:18:44.453Z,1014.56
2018-07-14T04:19:09.878Z,1014.54
2018-07-14T04:19:35.363Z,1014.54
2018-07-14T04:20:00.867Z,1014.54
2018-07-14T04:20:26.338Z,1014.58
2018-07-14T04:20:51.832Z,1014.5
2018-07-14T04:21:17.299Z,1014.56
2018-07-14T04:21:42.762Z,1014.51
2018-07-14T04:22:08.243Z,1014.55
2018-07-14T04:22:33.751Z,1014.49
2018-07-14T04:22:59.249Z,1014.5
2018-07-14T04:23:24.727Z,1014.51
2018-07-14T04:23:50.219Z,1014.47
2018-07-14T04:24:15.742Z,1014.45
2018-07-14T04:24:41.201Z,1014.48
2018-07-14T04:25:06.693Z,1014.48
2018-07-14T04:25:32.171Z,1014.48
2018-07-14T04:25:57.628Z,1014.48
2018-07-14T04:26:23.105Z,1014.49
2018-07-14T04:26:48.553Z,1014.52
2018-07-14T04:27:14.034Z,1014.54
2018-07-14T04:27:39.520Z,1014.52
2018-07-14T04:28:05.022Z,1014.53
2018-07-14T04:28:30.477Z,1014.56
2018-07-14T04:28:55.964Z,1014.54
2018-07-14T04:29:21.425Z,1014.6
2018-07-14T04:29:46.909Z,1014.58
2018-07-14T04:30:12.378Z,1014.62
2018-07-14T04:30:37.846Z,1014.57
2018-07-14T04:31:03.351Z,1014.6
2018-07-14T04:31:28.829Z,1014.59
2018-07-14T04:31:54.349Z,1014.6
2018-07-14T04:32:19.784Z,1014.58
2018-07-14T04:32:45.272Z,1014.59
2018-07-14T04:33:10.756Z,1014.56
2018-07-14T04:33:36.343Z,1014.57
2018-07-14T04:34:01.994Z,1014.58
2018-07-14T04:34:27.803Z,1014.54
2018-07-14T04:34:53.592Z,1014.54
2018-07-14T04:35:19.279Z,1014.53
2018-07-14T04:35:44.813Z,1014.52
2018-07-14T04:36:10.307Z,1014.5
2018-07-14T04:36:35.785Z,1014.57
2018-07-14T04:37:01.256Z,1014.52
2018-07-14T04:37:26.775Z,1014.51
2018-07-14T04:37:52.255Z,1014.53
2018-07-14T04:38:17.755Z,1014.53
2018-07-14T04:38:43.212Z,1014.52
2018-07-14T04:39:08.666Z,1014.55
2018-07-14T04:39:34.168Z,1014.52
2018-07-14T04:39:59.697Z,1014.55
2018-07-14T04:40:25.117Z,1014.5
2018-07-14T04:40:50.727Z,1014.55
2018-07-14T04:41:16.082Z,1014.54
2018-07-14T04:41:41.750Z,1014.54
2018-07-14T04:42:07.102Z,1014.54
2018-07-14T04:42:32.662Z,1014.54
2018-07-14T04:43:41.395Z,1014.53
2018-07-14T04:44:06.914Z,1014.51
2018-07-14T04:44:32.386Z,1014.47
2018-07-14T04:44:57.875Z,1014.54
2018-07-14T04:45:23.350Z,1014.52
2018-07-14T04:45:48.815Z,1014.51
2018-07-14T04:46:14.353Z,1014.48
2018-07-14T04:46:39.782Z,1014.46
2018-07-14T04:47:05.254Z,1014.51
2018-07-14T04:47:30.756Z,1014.45
2018-07-14T04:47:56.255Z,1014.53
2018-07-14T04:48:21.743Z,1014.48
2018-07-14T04:48:47.259Z,1014.49
2018-07-14T04:49:12.658Z,1014.52
2018-07-14T04:49:38.126Z,1014.49
2018-07-14T04:50:03.620Z,1014.5
2018-07-14T04:50:29.047Z,1014.5
2018-07-14T04:50:54.510Z,1014.5
2018-07-14T04:51:20.026Z,1014.56
2018-07-14T04:51:45.471Z,1014.52
2018-07-14T04:52:11.022Z,1014.56
2018-07-14T04:52:36.499Z,1014.53
2018-07-14T04:53:01.979Z,1014.59
2018-07-14T04:53:27.422Z,1014.59
2018-07-14T04:53:52.895Z,1014.56
2018-07-14T04:54:18.329Z,1014.59
2018-07-14T04:54:43.816Z,1014.56
2018-07-14T04:55:09.247Z,1014.58
2018-07-14T04:55:34.763Z,1014.58
2018-07-14T04:56:00.276Z,1014.56
2018-07-14T04:56:25.713Z,1014.65
2018-07-14T04:56:51.216Z,1014.6
2018-07-14T04:57:16.770Z,1014.63
2018-07-14T04:57:42.307Z,1014.67
2018-07-14T04:58:07.690Z,1014.63
2018-07-14T04:58:33.248Z,1014.65
2018-07-14T04:58:58.685Z,1014.63
2018-07-14T04:59:24.099Z,1014.64
2018-07-14T04:59:49.623Z,1014.62
2018-07-14T05:00:15.085Z,1014.66
2018-07-14T05:00:40.582Z,1014.6
2018-07-14T05:01:06.131Z,1014.61
2018-07-14T05:01:31.623Z,1014.6
2018-07-14T05:01:57.136Z,1014.57
2018-07-14T05:02:22.678Z,1014.57
2018-07-14T05:02:48.168Z,1014.58
2018-07-14T05:03:13.673Z,1014.57
2018-07-14T05:03:39.157Z,1014.54
2018-07-14T05:04:04.628Z,1014.54
2018-07-14T05:04:30.130Z,1014.52
2018-07-14T05:04:55.565Z,1014.57
2018-07-14T05:05:21.067Z,1014.57
2018-07-14T05:05:46.563Z,1014.55
2018-07-14T05:06:12.037Z,1014.53
2018-07-14T05:06:37.503Z,1014.55
2018-07-14T05:07:02.948Z,1014.56
2018-07-14T05:07:28.418Z,1014.54
2018-07-14T05:07:53.896Z,1014.52
2018-07-14T05:08:19.397Z,1014.51
2018-07-14T05:08:44.870Z,1014.52
2018-07-14T05:09:10.413Z,1014.49
2018-07-14T05:09:35.935Z,1014.47
2018-07-14T05:10:01.420Z,1014.55
2018-07-14T05:10:26.863Z,1014.51
2018-07-14T05:10:52.362Z,1014.49
2018-07-14T05:11:17.818Z,1014.52
2018-07-14T05:11:43.321Z,1014.54
2018-07-14T05:12:08.837Z,1014.5
2018-07-14T05:12:34.300Z,1014.53
2018-07-14T05:12:59.810Z,1014.54
2018-07-14T05:13:25.262Z,1014.56
2018-07-14T05:13:50.786Z,1014.55
2018-07-14T05:14:16.327Z,1014.55
2018-07-14T05:14:41.699Z,1014.56
2018-07-14T05:15:07.198Z,1014.56
2018-07-14T05:15:32.682Z,1014.56
2018-07-14T05:15:58.196Z,1014.52
2018-07-14T05:16:23.670Z,1014.53
2018-07-14T05:16:49.169Z,1014.53
2018-07-14T05:17:14.650Z,1014.51
2018-07-14T05:17:40.134Z,1014.53
2018-07-14T05:18:05.639Z,1014.52
2018-07-14T05:18:31.026Z,1014.5
2018-07-14T05:18:56.545Z,1014.55
2018-07-14T05:19:21.977Z,1014.5
2018-07-14T05:19:47.495Z,1014.54
2018-07-14T05:20:13.035Z,1014.53
2018-07-14T05:20:38.527Z,1014.49
2018-07-14T05:21:04.016Z,1014.51
2018-07-14T05:21:29.575Z,1014.52
2018-07-14T05:21:55.000Z,1014.54
2018-07-14T05:22:20.505Z,1014.53
2018-07-14T05:22:45.979Z,1014.51
2018-07-14T05:23:11.517Z,1014.55
2018-07-14T05:23:36.988Z,1014.53
2018-07-14T05:24:02.449Z,1014.54
2018-07-14T05:24:27.953Z,1014.55
2018-07-14T05:24:53.448Z,1014.53
2018-07-14T05:25:18.986Z,1014.55
2018-07-14T05:25:44.522Z,1014.51
2018-07-14T05:26:10.008Z,1014.55
2018-07-14T05:26:35.437Z,1014.57
2018-07-14T05:27:00.951Z,1014.59
2018-07-14T05:27:26.433Z,1014.57
2018-07-14T05:27:51.939Z,1014.6
2018-07-14T05:28:17.367Z,1014.55
2018-07-14T05:28:42.897Z,1014.55
2018-07-14T05:29:08.299Z,1014.61
2018-07-14T05:29:33.775Z,1014.61
2018-07-14T05:29:59.244Z,1014.6
2018-07-14T05:31:13.044Z,1014.58
2018-07-14T05:31:38.540Z,1014.57
2018-07-14T05:32:04.029Z,1014.57
2018-07-14T05:32:29.492Z,1014.58
2018-07-14T05:33:33.088Z,1014.59
2018-07-14T05:33:58.583Z,1014.55
2018-07-14T05:34:24.111Z,1014.57
2018-07-14T05:34:49.641Z,1014.58
2018-07-14T05:35:15.090Z,1014.59
2018-07-14T05:35:40.623Z,1014.59
2018-07-14T05:36:06.105Z,1014.57
2018-07-14T05:36:31.659Z,1014.59
2018-07-14T05:36:57.108Z,1014.6
2018-07-14T05:37:22.606Z,1014.62
2018-07-14T05:37:48.071Z,1014.62
2018-07-14T05:38:13.530Z,1014.63
2018-07-14T05:38:39.044Z,1014.64
2018-07-14T05:39:04.523Z,1014.62
2018-07-14T05:39:29.985Z,1014.64
2018-07-14T05:39:55.486Z,1014.65
2018-07-14T05:40:20.964Z,1014.66
2018-07-14T05:40:46.396Z,1014.65
2018-07-14T05:41:11.874Z,1014.67
2018-07-14T05:41:37.364Z,1014.66
2018-07-14T05:42:02.903Z,1014.68
2018-07-14T05:42:28.353Z,1014.65
2018-07-14T05:42:53.876Z,1014.66
2018-07-14T05:43:19.596Z,1014.7
2018-07-14T05:43:45.022Z,1014.68
2018-07-14T05:44:10.586Z,1014.66
2018-07-14T05:44:36.151Z,1014.68
2018-07-14T05:45:01.638Z,1014.72
2018-07-14T05:45:27.111Z,1014.68
2018-07-14T05:45:52.608Z,1014.71
2018-07-14T05:46:18.135Z,1014.67
2018-07-14T05:46:43.689Z,1014.72
2018-07-14T05:47:09.338Z,1014.68
2018-07-14T05:47:34.869Z,1014.71
2018-07-14T05:48:00.341Z,1014.69
2018-07-14T05:48:25.904Z,1014.69
2018-07-14T05:48:51.387Z,1014.68
2018-07-14T05:49:16.888Z,1014.67
2018-07-14T05:49:42.413Z,1014.68
2018-07-14T05:50:08.011Z,1014.69
2018-07-14T05:50:33.515Z,1014.68
2018-07-14T05:50:59.424Z,1014.68
2018-07-14T05:51:24.934Z,1014.69
2018-07-14T05:51:50.640Z,1014.66
2018-07-14T05:52:16.094Z,1014.62
2018-07-14T05:52:41.698Z,1014.64
2018-07-14T05:53:07.181Z,1014.62
2018-07-14T05:53:32.820Z,1014.65
2018-07-14T05:53:58.361Z,1014.68
2018-07-14T05:54:23.914Z,1014.69
2018-07-14T05:54:49.733Z,1014.69
2018-07-14T05:55:15.003Z,1014.75
2018-07-14T05:55:40.509Z,1014.67
2018-07-14T05:56:06.112Z,1014.67
2018-07-14T05:56:31.960Z,1014.71
2018-07-14T05:56:57.328Z,1014.71
2018-07-14T05:57:22.803Z,1014.69
2018-07-14T05:57:48.312Z,1014.7
2018-07-14T05:58:13.799Z,1014.74
2018-07-14T05:58:39.373Z,1014.71
2018-07-14T05:59:04.846Z,1014.74
2018-07-14T05:59:30.349Z,1014.79
2018-07-14T05:59:55.823Z,1014.78
2018-07-14T06:00:21.495Z,1014.76
2018-07-14T06:00:47.267Z,1014.76
2018-07-14T06:01:12.776Z,1014.79
2018-07-14T06:01:38.247Z,1014.77
2018-07-14T06:02:03.726Z,1014.81
2018-07-14T06:02:29.181Z,1014.8
2018-07-14T06:02:54.690Z,1014.79
2018-07-14T06:03:20.201Z,1014.8
2018-07-14T06:03:45.663Z,1014.78
2018-07-14T06:04:11.157Z,1014.79
2018-07-14T06:04:36.651Z,1014.81
2018-07-14T06:05:02.151Z,1014.84
2018-07-14T06:05:27.635Z,1014.84
2018-07-14T06:05:53.140Z,1014.86
2018-07-14T06:06:18.660Z,1014.83
2018-07-14T06:06:44.172Z,1014.87
2018-07-14T06:07:09.699Z,1014.85
2018-07-14T06:07:35.284Z,1014.85
2018-07-14T06:08:00.734Z,1014.84
2018-07-14T06:08:26.225Z,1014.87
2018-07-14T06:08:51.732Z,1014.87
2018-07-14T06:09:17.277Z,1014.92
2018-07-14T06:09:42.882Z,1014.91
2018-07-14T06:10:08.546Z,1014.98
2018-07-14T06:10:34.039Z,1014.93
2018-07-14T06:10:59.725Z,1014.97
2018-07-14T06:11:25.497Z,1014.99
2018-07-14T06:11:51.074Z,1014.97
2018-07-14T06:12:16.687Z,1014.99
2018-07-14T06:12:42.293Z,1014.97
2018-07-14T06:13:07.741Z,1014.99
2018-07-14T06:13:33.289Z,1015
2018-07-14T06:14:36.946Z,1014.97
2018-07-14T06:15:02.431Z,1015
2018-07-14T06:15:27.989Z,1015.01
2018-07-14T06:15:53.469Z,1015.01
2018-07-14T06:16:18.998Z,1015.02
2018-07-14T06:16:44.509Z,1014.99
2018-07-14T06:17:53.273Z,1015
2018-07-14T06:18:18.774Z,1014.98
2018-07-14T06:18:44.243Z,1014.96
2018-07-14T06:19:09.757Z,1015.01
2018-07-14T06:19:35.227Z,1015.02
2018-07-14T06:20:00.697Z,1014.99
2018-07-14T06:20:26.202Z,1014.96
2018-07-14T06:20:51.711Z,1014.98
2018-07-14T06:21:17.236Z,1014.98
2018-07-14T06:21:42.706Z,1014.97
2018-07-14T06:22:08.199Z,1014.97
2018-07-14T06:22:33.688Z,1014.97
2018-07-14T06:22:59.259Z,1014.98
2018-07-14T06:23:24.753Z,1015.01
2018-07-14T06:23:50.246Z,1015
2018-07-14T06:24:15.787Z,1014.99
2018-07-14T06:24:41.295Z,1015
2018-07-14T06:25:06.804Z,1014.97
2018-07-14T06:25:32.270Z,1015.01
2018-07-14T06:25:57.762Z,1014.97
2018-07-14T06:26:23.239Z,1014.96
2018-07-14T06:26:48.722Z,1015
2018-07-14T06:27:14.186Z,1014.96
2018-07-14T06:27:39.712Z,1014.97
2018-07-14T06:28:05.222Z,1014.95
2018-07-14T06:28:30.679Z,1014.99
2018-07-14T06:28:56.158Z,1014.99
2018-07-14T06:29:21.720Z,1014.97
2018-07-14T06:29:47.244Z,1015
2018-07-14T06:30:12.731Z,1015
2018-07-14T06:31:16.325Z,1015.03
2018-07-14T06:31:41.849Z,1014.97
2018-07-14T06:32:07.503Z,1014.99
2018-07-14T06:32:32.841Z,1015
2018-07-14T06:32:58.333Z,1015.01
2018-07-14T06:33:23.849Z,1015.05
2018-07-14T06:33:49.327Z,1015.01
2018-07-14T06:34:14.797Z,1015.03
2018-07-14T06:34:40.323Z,1015.03
2018-07-14T06:35:05.813Z,1015.01
2018-07-14T06:35:31.323Z,1014.99
2018-07-14T06:35:56.841Z,1015.02
2018-07-14T06:36:22.346Z,1015.04
2018-07-14T06:36:47.838Z,1015.03
2018-07-14T06:37:13.357Z,1015.04
2018-07-14T06:37:38.860Z,1015.06
2018-07-14T06:38:04.328Z,1015.05
2018-07-14T06:38:29.839Z,1015.04
2018-07-14T06:38:55.328Z,1015.04
2018-07-14T06:39:20.831Z,1015.01
2018-07-14T06:39:46.331Z,1015.02
2018-07-14T06:40:11.816Z,1015
2018-07-14T06:40:37.328Z,1015.03
2018-07-14T06:41:02.828Z,1015.01
2018-07-14T06:41:28.253Z,1014.97
2018-07-14T06:41:53.698Z,1014.97
2018-07-14T06:42:19.212Z,1014.99
2018-07-14T06:42:44.981Z,1014.98
2018-07-14T06:43:10.461Z,1015.03
2018-07-14T06:43:35.950Z,1015.03
2018-07-14T06:44:01.398Z,1015.02
2018-07-14T06:44:26.868Z,1015.05
2018-07-14T06:44:52.490Z,1015.04
2018-07-14T06:45:17.882Z,1015.09
2018-07-14T06:45:43.370Z,1015.1
2018-07-14T06:46:08.863Z,1015.06
2018-07-14T06:46:34.360Z,1015.06
2018-07-14T06:46:59.868Z,1015.07
2018-07-14T06:47:25.417Z,1015.06
2018-07-14T06:47:50.839Z,1015.12
2018-07-14T06:48:16.351Z,1015.09
2018-07-14T06:48:41.841Z,1015.1
2018-07-14T06:49:07.323Z,1015.12
2018-07-14T06:49:32.753Z,1015.13
2018-07-14T06:49:58.237Z,1015.1
2018-07-14T06:50:23.711Z,1015.08
2018-07-14T06:50:49.233Z,1015.11
2018-07-14T06:51:14.699Z,1015.15
2018-07-14T06:51:40.205Z,1015.12
2018-07-14T06:52:05.711Z,1015.08
2018-07-14T06:52:31.149Z,1015.15
2018-07-14T06:52:56.653Z,1015.1
2018-07-14T06:53:22.309Z,1015.16
2018-07-14T06:53:47.722Z,1015.13
2018-07-14T06:54:13.221Z,1015.13
2018-07-14T06:54:38.675Z,1015.1
2018-07-14T06:55:04.186Z,1015.11
2018-07-14T06:55:29.714Z,1015.12
2018-07-14T06:55:55.195Z,1015.15
2018-07-14T06:56:20.784Z,1015.09
2018-07-14T06:56:46.170Z,1015.11
2018-07-14T06:57:11.605Z,1015.1
2018-07-14T06:57:37.118Z,1015.06
2018-07-14T06:58:02.601Z,1015.11
2018-07-14T06:58:28.073Z,1015.09
2018-07-14T06:58:53.569Z,1015.06
2018-07-14T06:59:19.067Z,1015.08
2018-07-14T06:59:44.531Z,1015.08
2018-07-14T07:00:10.083Z,1015.12
2018-07-14T07:00:35.599Z,1015.16
2018-07-14T07:01:01.074Z,1015.11
2018-07-14T07:01:26.775Z,1015.18
2018-07-14T07:01:52.217Z,1015.17
2018-07-14T07:02:17.649Z,1015.14
2018-07-14T07:02:43.095Z,1015.15
2018-07-14T07:03:08.678Z,1015.18
2018-07-14T07:03:34.093Z,1015.18
2018-07-14T07:03:59.600Z,1015.18
2018-07-14T07:04:25.111Z,1015.16
2018-07-14T07:04:50.676Z,1015.17
2018-07-14T07:05:16.145Z,1015.18
2018-07-14T07:05:41.596Z,1015.19
2018-07-14T07:06:07.376Z,1015.17
2018-07-14T07:06:32.882Z,1015.19
2018-07-14T07:06:58.366Z,1015.19
2018-07-14T07:07:23.846Z,1015.13
2018-07-14T07:08:37.646Z,1015.17
2018-07-14T07:09:03.130Z,1015.16
2018-07-14T07:09:28.607Z,1015.18
2018-07-14T07:09:54.106Z,1015.17
2018-07-14T07:10:19.533Z,1015.15
2018-07-14T07:10:45.011Z,1015.16
2018-07-14T07:11:10.546Z,1015.17
2018-07-14T07:11:36.065Z,1015.13
2018-07-14T07:12:01.697Z,1015.13
2018-07-14T07:12:27.132Z,1015.19
2018-07-14T07:12:52.615Z,1015.15
2018-07-14T07:13:18.125Z,1015.17
2018-07-14T07:13:43.708Z,1015.14
2018-07-14T07:14:09.092Z,1015.13
2018-07-14T07:14:34.540Z,1015.15
2018-07-14T07:15:00.090Z,1015.16
2018-07-14T07:16:03.691Z,1015.15
2018-07-14T07:16:29.196Z,1015.21
2018-07-14T07:16:54.684Z,1015.14
2018-07-14T07:17:20.159Z,1015.17
2018-07-14T07:17:45.655Z,1015.16
2018-07-14T07:18:11.150Z,1015.18
2018-07-14T07:18:36.600Z,1015.2
2018-07-14T07:19:02.069Z,1015.18
2018-07-14T07:19:27.492Z,1015.18
2018-07-14T07:19:52.972Z,1015.22
2018-07-14T07:20:18.459Z,1015.2
2018-07-14T07:20:43.910Z,1015.21
2018-07-14T07:21:09.456Z,1015.22
2018-07-14T07:21:34.958Z,1015.21
2018-07-14T07:22:00.455Z,1015.23
2018-07-14T07:22:25.950Z,1015.26
2018-07-14T07:22:51.458Z,1015.2
2018-07-14T07:23:16.938Z,1015.21
2018-07-14T07:23:42.410Z,1015.26
2018-07-14T07:24:07.897Z,1015.26
2018-07-14T07:24:33.403Z,1015.18
2018-07-14T07:24:58.888Z,1015.24
2018-07-14T07:25:24.427Z,1015.27
2018-07-14T07:25:49.900Z,1015.25
2018-07-14T07:26:15.389Z,1015.23
2018-07-14T07:26:40.878Z,1015.25
2018-07-14T07:27:06.384Z,1015.26
2018-07-14T07:27:31.868Z,1015.21
2018-07-14T07:27:57.395Z,1015.24
2018-07-14T07:28:22.922Z,1015.28
2018-07-14T07:28:48.442Z,1015.27
2018-07-14T07:29:14.008Z,1015.23
2018-07-14T07:29:39.520Z,1015.22
2018-07-14T07:30:05.052Z,1015.24
2018-07-14T07:30:30.543Z,1015.24
2018-07-14T07:30:56.073Z,1015.25
2018-07-14T07:31:21.531Z,1015.29
2018-07-14T07:31:47.012Z,1015.3
2018-07-14T07:32:12.493Z,1015.26
2018-07-14T07:33:21.228Z,1015.26
2018-07-14T07:33:46.753Z,1015.25
2018-07-14T07:34:12.257Z,1015.24
2018-07-14T07:34:37.843Z,1015.2
2018-07-14T07:35:03.310Z,1015.25
2018-07-14T07:35:28.816Z,1015.23
2018-07-14T07:35:54.307Z,1015.2
2018-07-14T07:36:19.819Z,1015.22
2018-07-14T07:36:45.302Z,1015.24
2018-07-14T07:37:10.806Z,1015.23
2018-07-14T07:37:36.295Z,1015.24
2018-07-14T07:38:01.942Z,1015.22
2018-07-14T07:38:27.391Z,1015.25
2018-07-14T07:38:52.846Z,1015.22
2018-07-14T07:39:18.365Z,1015.23
2018-07-14T07:39:43.891Z,1015.24
2018-07-14T07:40:09.384Z,1015.22
2018-07-14T07:40:34.874Z,1015.28
2018-07-14T07:41:00.379Z,1015.23
2018-07-14T07:41:25.886Z,1015.24
2018-07-14T07:41:51.413Z,1015.25
2018-07-14T07:42:16.939Z,1015.25
2018-07-14T07:42:42.410Z,1015.27
2018-07-14T07:43:07.907Z,1015.25
2018-07-14T07:44:06.434Z,1015.29
2018-07-14T07:44:31.942Z,1015.25
2018-07-14T07:44:57.415Z,1015.27
2018-07-14T07:45:22.940Z,1015.26
2018-07-14T07:45:48.435Z,1015.23
2018-07-14T07:46:13.946Z,1015.26
2018-07-14T07:46:39.443Z,1015.28
2018-07-14T07:47:04.935Z,1015.29
2018-07-14T07:47:30.421Z,1015.22
2018-07-14T07:47:55.933Z,1015.26
2018-07-14T07:48:21.384Z,1015.24
2018-07-14T07:48:46.883Z,1015.22
2018-07-14T07:49:12.357Z,1015.24
2018-07-14T07:49:37.858Z,1015.27
2018-07-14T07:50:03.370Z,1015.24
2018-07-14T07:50:28.879Z,1015.22
2018-07-14T07:51:27.432Z,1015.2
2018-07-14T07:51:52.913Z,1015.22
2018-07-14T07:52:18.405Z,1015.24
2018-07-14T07:52:43.908Z,1015.2
2018-07-14T07:53:09.409Z,1015.21
2018-07-14T07:53:34.940Z,1015.2
2018-07-14T07:54:00.442Z,1015.25
2018-07-14T07:54:25.960Z,1015.21
2018-07-14T07:54:51.461Z,1015.18
2018-07-14T07:55:16.941Z,1015.23
2018-07-14T07:55:42.412Z,1015.25
2018-07-14T07:56:07.909Z,1015.18
2018-07-14T07:56:33.427Z,1015.17
2018-07-14T07:56:58.909Z,1015.22
2018-07-14T07:57:24.392Z,1015.21
2018-07-14T07:57:49.918Z,1015.14
2018-07-14T07:58:15.385Z,1015.21
2018-07-14T07:58:40.860Z,1015.23
2018-07-14T07:59:06.530Z,1015.24
2018-07-14T07:59:31.865Z,1015.24
2018-07-14T07:59:57.375Z,1015.15
2018-07-14T08:00:22.870Z,1015.18
2018-07-14T08:00:48.365Z,1015.21
2018-07-14T08:01:13.863Z,1015.18
2018-07-14T08:01:39.367Z,1015.2
2018-07-14T08:02:58.299Z,1015.22
2018-07-14T08:03:23.810Z,1015.14
2018-07-14T08:03:49.447Z,1015.17
2018-07-14T08:04:14.887Z,1015.16
2018-07-14T08:04:40.433Z,1015.16
2018-07-14T08:05:05.856Z,1015.18
2018-07-14T08:05:31.357Z,1015.14
2018-07-14T08:05:56.821Z,1015.15
2018-07-14T08:06:22.244Z,1015.13
2018-07-14T08:06:47.759Z,1015.14
2018-07-14T08:07:13.299Z,1015.14
2018-07-14T08:07:38.781Z,1015.11
2018-07-14T08:08:52.775Z,1015.12
2018-07-14T08:09:18.298Z,1015.17
2018-07-14T08:09:43.763Z,1015.19
2018-07-14T08:10:09.242Z,1015.14
2018-07-14T08:10:34.769Z,1015.14
2018-07-14T08:11:00.210Z,1015.12
2018-07-14T08:11:25.714Z,1015.12
2018-07-14T08:11:51.180Z,1015.17
2018-07-14T08:12:16.664Z,1015.14
2018-07-14T08:12:42.164Z,1015.13
2018-07-14T08:13:07.664Z,1015.13
2018-07-14T08:13:33.152Z,1015.11
2018-07-14T08:13:58.655Z,1015.13
2018-07-14T08:14:24.153Z,1015.12
2018-07-14T08:14:49.644Z,1015.14
2018-07-14T08:15:15.170Z,1015.14
2018-07-14T08:15:40.675Z,1015.15
2018-07-14T08:16:49.363Z,1015.16
2018-07-14T08:17:14.925Z,1015.14
2018-07-14T08:17:40.434Z,1015.16
2018-07-14T08:18:05.946Z,1015.16
2018-07-14T08:18:31.420Z,1015.16
2018-07-14T08:18:56.955Z,1015.18
2018-07-14T08:19:22.443Z,1015.13
2018-07-14T08:19:47.951Z,1015.14
2018-07-14T08:20:13.412Z,1015.1
2018-07-14T08:20:38.913Z,1015.12
2018-07-14T08:21:04.405Z,1015.14
2018-07-14T08:21:29.907Z,1015.11
2018-07-14T08:21:55.396Z,1015.08
2018-07-14T08:22:20.897Z,1015.08
2018-07-14T08:22:46.482Z,1015.1
2018-07-14T08:23:11.913Z,1015.11
2018-07-14T08:23:37.383Z,1015.08
2018-07-14T08:24:02.869Z,1015.11
2018-07-14T08:24:28.422Z,1015.1
2018-07-14T08:24:53.904Z,1015.14
2018-07-14T08:25:19.390Z,1015.09
2018-07-14T08:25:44.914Z,1015.08
2018-07-14T08:26:10.627Z,1015.06
2018-07-14T08:26:36.116Z,1015.09
2018-07-14T08:27:01.621Z,1015.12
2018-07-14T08:27:27.109Z,1015.16
2018-07-14T08:27:52.624Z,1015.14
2018-07-14T08:28:18.162Z,1015.11
2018-07-14T08:28:43.629Z,1015.12
2018-07-14T08:29:09.145Z,1015.12
2018-07-14T08:29:34.616Z,1015.13
2018-07-14T08:30:00.137Z,1015.13
2018-07-14T08:30:25.662Z,1015.16
2018-07-14T08:30:51.166Z,1015.17
2018-07-14T08:31:16.662Z,1015.15
2018-07-14T08:31:42.152Z,1015.14
2018-07-14T08:32:07.658Z,1015.16
2018-07-14T08:32:33.190Z,1015.19
2018-07-14T08:32:58.679Z,1015.19
2018-07-14T08:33:24.144Z,1015.16
2018-07-14T08:33:49.623Z,1015.19
2018-07-14T08:35:08.601Z,1015.14
2018-07-14T08:35:34.095Z,1015.16
2018-07-14T08:35:59.593Z,1015.18
2018-07-14T08:36:25.101Z,1015.16
2018-07-14T08:36:50.621Z,1015.15
2018-07-14T08:37:16.094Z,1015.2
2018-07-14T08:37:41.597Z,1015.17
2018-07-14T08:38:07.149Z,1015.18
2018-07-14T08:38:32.590Z,1015.16
2018-07-14T08:38:58.069Z,1015.13
2018-07-14T08:39:23.575Z,1015.15
2018-07-14T08:39:49.064Z,1015.15
2018-07-14T08:40:14.527Z,1015.17
2018-07-14T08:40:39.995Z,1015.18
2018-07-14T08:41:05.520Z,1015.18
2018-07-14T08:41:31.025Z,1015.15
2018-07-14T08:41:56.538Z,1015.16
2018-07-14T08:42:22.062Z,1015.19
2018-07-14T08:42:47.531Z,1015.19
2018-07-14T08:43:13.021Z,1015.16
2018-07-14T08:43:38.559Z,1015.16
2018-07-14T08:44:04.021Z,1015.21
2018-07-14T08:44:29.504Z,1015.2
2018-07-14T08:44:54.999Z,1015.2
2018-07-14T08:45:20.505Z,1015.23
2018-07-14T08:45:45.994Z,1015.22
2018-07-14T08:46:11.485Z,1015.22
2018-07-14T08:46:37.005Z,1015.19
2018-07-14T08:47:02.527Z,1015.26
2018-07-14T08:47:27.999Z,1015.22
2018-07-14T08:47:53.688Z,1015.29
2018-07-14T08:48:19.145Z,1015.26
2018-07-14T08:48:44.641Z,1015.28
2018-07-14T08:49:10.143Z,1015.3
2018-07-14T08:49:35.653Z,1015.31
2018-07-14T08:50:01.158Z,1015.3
2018-07-14T08:50:26.677Z,1015.31
2018-07-14T08:50:52.082Z,1015.29
2018-07-14T08:51:17.704Z,1015.3
2018-07-14T08:51:43.099Z,1015.28
2018-07-14T08:53:02.073Z,1015.23
2018-07-14T08:53:27.553Z,1015.28
2018-07-14T08:53:53.054Z,1015.22
2018-07-14T08:54:18.555Z,1015.19
2018-07-14T08:54:44.076Z,1015.25
2018-07-14T08:55:09.620Z,1015.19
2018-07-14T08:55:35.170Z,1015.23
2018-07-14T08:56:00.657Z,1015.24
2018-07-14T08:56:26.138Z,1015.19
2018-07-14T08:56:51.653Z,1015.17
2018-07-14T08:57:17.192Z,1015.18
2018-07-14T08:57:42.721Z,1015.18
2018-07-14T08:58:08.322Z,1015.23
2018-07-14T08:58:33.742Z,1015.23
2018-07-14T08:58:59.235Z,1015.2
2018-07-14T08:59:24.795Z,1015.19
2018-07-14T08:59:50.296Z,1015.19
2018-07-14T09:00:15.779Z,1015.2
2018-07-14T09:00:41.279Z,1015.19
2018-07-14T09:01:06.836Z,1015.16
2018-07-14T09:01:32.403Z,1015.16
2018-07-14T09:01:57.880Z,1015.21
2018-07-14T09:02:23.397Z,1015.18
2018-07-14T09:02:48.926Z,1015.18
2018-07-14T09:03:14.490Z,1015.2
2018-07-14T09:03:40.100Z,1015.2
2018-07-14T09:04:05.477Z,1015.23
2018-07-14T09:04:31.013Z,1015.22
2018-07-14T09:04:56.564Z,1015.22
2018-07-14T09:05:22.109Z,1015.2
2018-07-14T09:05:47.551Z,1015.13
2018-07-14T09:06:13.057Z,1015.17
2018-07-14T09:06:38.616Z,1015.15
2018-07-14T09:07:04.062Z,1015.19
2018-07-14T09:07:29.692Z,1015.14
2018-07-14T09:07:55.287Z,1015.12
2018-07-14T09:08:20.747Z,1015.14
2018-07-14T09:08:46.265Z,1015.13
2018-07-14T09:09:11.777Z,1015.13
2018-07-14T09:09:37.285Z,1015.14
2018-07-14T09:10:02.805Z,1015.13
2018-07-14T09:10:28.317Z,1015.14
2018-07-14T09:10:53.985Z,1015.11
2018-07-14T09:11:19.443Z,1015.18
2018-07-14T09:11:44.950Z,1015.15
2018-07-14T09:12:10.472Z,1015.12
2018-07-14T09:12:35.961Z,1015.14
2018-07-14T09:13:01.461Z,1015.1
2018-07-14T09:13:26.931Z,1015.11
2018-07-14T09:13:52.437Z,1015.09
2018-07-14T09:14:17.924Z,1015.1
2018-07-14T09:14:43.473Z,1015.13
2018-07-14T09:15:08.961Z,1015.14
2018-07-14T09:15:34.432Z,1015.14
2018-07-14T09:15:59.908Z,1015.09
2018-07-14T09:16:25.440Z,1015.1
2018-07-14T09:16:50.902Z,1015.09
2018-07-14T09:17:16.402Z,1015.07
2018-07-14T09:17:41.910Z,1015.07
2018-07-14T09:18:07.415Z,1015.05
2018-07-14T09:18:32.920Z,1015.04
2018-07-14T09:18:58.409Z,1015.06
2018-07-14T09:19:23.922Z,1015.04
2018-07-14T09:19:49.383Z,1015.03
2018-07-14T09:20:14.870Z,1014.99
2018-07-14T09:20:40.378Z,1014.98
2018-07-14T09:21:05.866Z,1015
2018-07-14T09:21:31.347Z,1014.99
2018-07-14T09:21:56.840Z,1014.99
2018-07-14T09:22:22.356Z,1014.98
2018-07-14T09:22:47.846Z,1014.96
2018-07-14T09:23:13.373Z,1015.01
2018-07-14T09:23:38.880Z,1014.99
2018-07-14T09:24:04.373Z,1014.99
2018-07-14T09:24:29.845Z,1014.96
2018-07-14T09:24:55.304Z,1014.96
2018-07-14T09:25:20.788Z,1014.94
2018-07-14T09:25:46.325Z,1014.97
2018-07-14T09:26:11.843Z,1014.95
2018-07-14T09:26:37.339Z,1014.96
2018-07-14T09:27:02.801Z,1014.96
2018-07-14T09:27:28.298Z,1014.95
2018-07-14T09:27:53.840Z,1014.99
2018-07-14T09:28:19.343Z,1014.99
2018-07-14T09:28:44.852Z,1014.99
2018-07-14T09:29:10.338Z,1014.99
2018-07-14T09:29:35.845Z,1015.05
2018-07-14T09:30:01.447Z,1014.99
2018-07-14T09:30:26.915Z,1015.03
2018-07-14T09:30:52.445Z,1015.02
2018-07-14T09:31:17.930Z,1015.03
2018-07-14T09:31:43.439Z,1015.03